sensor_id;sensor_type;location;lat;lon;timestamp;P1;durP1;ratioP1;P2;durP2;ratioP2
16115;SDS011;8162;47.104;15.432;2022-09-09T00:00:31;3.57;;;0.77;;
16115;SDS011;8162;47.104;15.432;2022-09-09T00:03:12;9.53;;;1.03;;
16115;SDS011;8162;47.104;15.432;2022-09-09T00:06:04;4.97;;;0.90;;
16115;SDS011;8162;47.104;15.432;2022-09-09T00:11:12;1.10;;;0.90;;
16115;SDS011;8162;47.104;15.432;2022-09-09T00:13:48;1.97;;;0.73;;
16115;SDS011;8162;47.104;15.432;2022-09-09T00:16:25;5.20;;;1.33;;
16115;SDS011;8162;47.104;15.432;2022-09-09T00:21:37;1.43;;;0.90;;
16115;SDS011;8162;47.104;15.432;2022-09-09T00:26:51;6.90;;;1.47;;
16115;SDS011;8162;47.104;15.432;2022-09-09T00:29:32;6.50;;;1.30;;
16115;SDS011;8162;47.104;15.432;2022-09-09T00:32:14;3.27;;;1.13;;
16115;SDS011;8162;47.104;15.432;2022-09-09T00:35:02;5.77;;;1.30;;
16115;SDS011;8162;47.104;15.432;2022-09-09T00:37:40;11.83;;;1.70;;
16115;SDS011;8162;47.104;15.432;2022-09-09T00:40:18;3.30;;;1.00;;
16115;SDS011;8162;47.104;15.432;2022-09-09T00:43:00;4.67;;;1.30;;
16115;SDS011;8162;47.104;15.432;2022-09-09T00:48:10;6.80;;;1.23;;
16115;SDS011;8162;47.104;15.432;2022-09-09T00:58:38;5.37;;;1.40;;
16115;SDS011;8162;47.104;15.432;2022-09-09T01:01:11;2.73;;;0.90;;
16115;SDS011;8162;47.104;15.432;2022-09-09T01:03:53;7.87;;;1.67;;
16115;SDS011;8162;47.104;15.432;2022-09-09T01:09:08;1.80;;;1.10;;
16115;SDS011;8162;47.104;15.432;2022-09-09T01:14:28;2.53;;;1.17;;
16115;SDS011;8162;47.104;15.432;2022-09-09T01:16:56;2.40;;;1.30;;
16115;SDS011;8162;47.104;15.432;2022-09-09T01:19:55;4.63;;;1.20;;
16115;SDS011;8162;47.104;15.432;2022-09-09T01:25:22;3.20;;;1.20;;
16115;SDS011;8162;47.104;15.432;2022-09-09T01:28:12;2.20;;;1.13;;
16115;SDS011;8162;47.104;15.432;2022-09-09T01:30:46;1.23;;;1.10;;
16115;SDS011;8162;47.104;15.432;2022-09-09T01:33:15;1.60;;;1.00;;
16115;SDS011;8162;47.104;15.432;2022-09-09T01:35:50;3.40;;;1.50;;
16115;SDS011;8162;47.104;15.432;2022-09-09T01:38:22;4.43;;;1.33;;
16115;SDS011;8162;47.104;15.432;2022-09-09T01:40:49;2.90;;;1.20;;
16115;SDS011;8162;47.104;15.432;2022-09-09T01:43:18;3.20;;;1.60;;
16115;SDS011;8162;47.104;15.432;2022-09-09T01:45:47;4.47;;;1.50;;
16115;SDS011;8162;47.104;15.432;2022-09-09T01:48:16;3.40;;;1.70;;
16115;SDS011;8162;47.104;15.432;2022-09-09T01:50:42;3.17;;;1.47;;
16115;SDS011;8162;47.104;15.432;2022-09-09T01:53:08;3.87;;;1.60;;
16115;SDS011;8162;47.104;15.432;2022-09-09T01:55:39;2.23;;;1.60;;
16115;SDS011;8162;47.104;15.432;2022-09-09T02:00:38;3.77;;;1.93;;
16115;SDS011;8162;47.104;15.432;2022-09-09T02:09:04;4.30;;;2.10;;
16115;SDS011;8162;47.104;15.432;2022-09-09T02:11:31;5.53;;;1.70;;
16115;SDS011;8162;47.104;15.432;2022-09-09T02:14:17;1.97;;;1.80;;
16115;SDS011;8162;47.104;15.432;2022-09-09T02:16:55;5.57;;;2.00;;
16115;SDS011;8162;47.104;15.432;2022-09-09T02:19:39;5.97;;;2.30;;
16115;SDS011;8162;47.104;15.432;2022-09-09T02:22:11;6.00;;;1.60;;
16115;SDS011;8162;47.104;15.432;2022-09-09T02:24:38;2.27;;;1.70;;
16115;SDS011;8162;47.104;15.432;2022-09-09T02:27:06;4.40;;;1.90;;
16115;SDS011;8162;47.104;15.432;2022-09-09T02:29:35;6.93;;;2.20;;
16115;SDS011;8162;47.104;15.432;2022-09-09T02:32:05;3.03;;;2.00;;
16115;SDS011;8162;47.104;15.432;2022-09-09T02:34:35;3.10;;;1.90;;
16115;SDS011;8162;47.104;15.432;2022-09-09T02:37:04;4.07;;;2.50;;
16115;SDS011;8162;47.104;15.432;2022-09-09T02:39:33;3.90;;;2.00;;
16115;SDS011;8162;47.104;15.432;2022-09-09T02:41:58;3.33;;;2.20;;
16115;SDS011;8162;47.104;15.432;2022-09-09T02:44:24;3.97;;;1.97;;
16115;SDS011;8162;47.104;15.432;2022-09-09T02:47:04;4.93;;;2.37;;
16115;SDS011;8162;47.104;15.432;2022-09-09T02:49:51;2.80;;;1.80;;
16115;SDS011;8162;47.104;15.432;2022-09-09T02:55:58;6.00;;;2.57;;
16115;SDS011;8162;47.104;15.432;2022-09-09T02:58:22;2.43;;;2.23;;
16115;SDS011;8162;47.104;15.432;2022-09-09T03:00:49;3.63;;;2.50;;
16115;SDS011;8162;47.104;15.432;2022-09-09T03:03:16;1.80;;;1.70;;
16115;SDS011;8162;47.104;15.432;2022-09-09T03:05:43;5.03;;;1.90;;
16115;SDS011;8162;47.104;15.432;2022-09-09T03:08:10;4.53;;;1.67;;
16115;SDS011;8162;47.104;15.432;2022-09-09T03:10:36;3.53;;;2.33;;
16115;SDS011;8162;47.104;15.432;2022-09-09T03:13:02;6.13;;;2.03;;
16115;SDS011;8162;47.104;15.432;2022-09-09T03:15:30;1.90;;;1.80;;
16115;SDS011;8162;47.104;15.432;2022-09-09T03:17:57;4.30;;;2.93;;
16115;SDS011;8162;47.104;15.432;2022-09-09T03:20:24;3.93;;;2.27;;
16115;SDS011;8162;47.104;15.432;2022-09-09T03:22:51;7.90;;;2.37;;
16115;SDS011;8162;47.104;15.432;2022-09-09T03:25:18;4.33;;;2.40;;
16115;SDS011;8162;47.104;15.432;2022-09-09T03:27:44;3.53;;;3.00;;
16115;SDS011;8162;47.104;15.432;2022-09-09T03:30:09;4.93;;;2.37;;
16115;SDS011;8162;47.104;15.432;2022-09-09T03:32:35;3.30;;;2.20;;
16115;SDS011;8162;47.104;15.432;2022-09-09T03:35:02;4.00;;;2.43;;
16115;SDS011;8162;47.104;15.432;2022-09-09T03:37:27;3.47;;;1.90;;
16115;SDS011;8162;47.104;15.432;2022-09-09T03:39:53;3.67;;;2.07;;
16115;SDS011;8162;47.104;15.432;2022-09-09T03:42:19;5.60;;;2.40;;
16115;SDS011;8162;47.104;15.432;2022-09-09T03:44:46;5.53;;;2.40;;
16115;SDS011;8162;47.104;15.432;2022-09-09T03:47:18;2.40;;;2.20;;
16115;SDS011;8162;47.104;15.432;2022-09-09T03:49:45;4.00;;;2.30;;
16115;SDS011;8162;47.104;15.432;2022-09-09T03:52:11;4.10;;;2.20;;
16115;SDS011;8162;47.104;15.432;2022-09-09T03:54:37;4.97;;;2.83;;
16115;SDS011;8162;47.104;15.432;2022-09-09T03:57:04;3.93;;;2.33;;
16115;SDS011;8162;47.104;15.432;2022-09-09T03:59:29;2.20;;;2.00;;
16115;SDS011;8162;47.104;15.432;2022-09-09T04:01:55;7.97;;;2.50;;
16115;SDS011;8162;47.104;15.432;2022-09-09T04:04:23;5.07;;;2.77;;
16115;SDS011;8162;47.104;15.432;2022-09-09T04:06:49;2.77;;;2.57;;
16115;SDS011;8162;47.104;15.432;2022-09-09T04:09:15;3.77;;;2.60;;
16115;SDS011;8162;47.104;15.432;2022-09-09T04:11:41;4.50;;;2.70;;
16115;SDS011;8162;47.104;15.432;2022-09-09T04:14:07;6.77;;;2.73;;
16115;SDS011;8162;47.104;15.432;2022-09-09T04:16:33;3.07;;;2.60;;
16115;SDS011;8162;47.104;15.432;2022-09-09T04:18:59;5.80;;;2.77;;
16115;SDS011;8162;47.104;15.432;2022-09-09T04:21:25;2.63;;;2.43;;
16115;SDS011;8162;47.104;15.432;2022-09-09T04:23:51;3.73;;;2.50;;
16115;SDS011;8162;47.104;15.432;2022-09-09T04:26:17;4.17;;;2.60;;
16115;SDS011;8162;47.104;15.432;2022-09-09T04:28:43;5.30;;;2.90;;
16115;SDS011;8162;47.104;15.432;2022-09-09T04:31:10;5.30;;;2.40;;
16115;SDS011;8162;47.104;15.432;2022-09-09T04:33:40;4.77;;;2.70;;
16115;SDS011;8162;47.104;15.432;2022-09-09T04:36:06;7.30;;;2.77;;
16115;SDS011;8162;47.104;15.432;2022-09-09T04:38:32;3.93;;;2.27;;
16115;SDS011;8162;47.104;15.432;2022-09-09T04:40:58;5.57;;;2.73;;
16115;SDS011;8162;47.104;15.432;2022-09-09T04:43:24;3.33;;;2.70;;
16115;SDS011;8162;47.104;15.432;2022-09-09T04:45:52;3.50;;;2.50;;
16115;SDS011;8162;47.104;15.432;2022-09-09T04:48:18;3.63;;;2.67;;
16115;SDS011;8162;47.104;15.432;2022-09-09T04:50:53;3.47;;;2.60;;
16115;SDS011;8162;47.104;15.432;2022-09-09T04:53:33;3.93;;;2.53;;
16115;SDS011;8162;47.104;15.432;2022-09-09T04:56:06;6.20;;;2.60;;
16115;SDS011;8162;47.104;15.432;2022-09-09T04:58:35;3.20;;;2.90;;
16115;SDS011;8162;47.104;15.432;2022-09-09T05:01:06;5.57;;;2.80;;
16115;SDS011;8162;47.104;15.432;2022-09-09T05:03:36;3.17;;;2.63;;
16115;SDS011;8162;47.104;15.432;2022-09-09T05:06:06;4.17;;;2.80;;
16115;SDS011;8162;47.104;15.432;2022-09-09T05:08:34;5.53;;;2.47;;
16115;SDS011;8162;47.104;15.432;2022-09-09T05:11:04;4.33;;;2.50;;
16115;SDS011;8162;47.104;15.432;2022-09-09T05:13:38;2.90;;;2.70;;
16115;SDS011;8162;47.104;15.432;2022-09-09T05:16:04;3.33;;;3.00;;
16115;SDS011;8162;47.104;15.432;2022-09-09T05:18:29;2.70;;;2.50;;
16115;SDS011;8162;47.104;15.432;2022-09-09T05:20:58;2.40;;;2.20;;
16115;SDS011;8162;47.104;15.432;2022-09-09T05:23:25;5.20;;;3.10;;
16115;SDS011;8162;47.104;15.432;2022-09-09T05:25:57;4.63;;;2.93;;
16115;SDS011;8162;47.104;15.432;2022-09-09T05:28:26;3.23;;;2.93;;
16115;SDS011;8162;47.104;15.432;2022-09-09T05:30:59;4.10;;;2.67;;
16115;SDS011;8162;47.104;15.432;2022-09-09T05:33:28;2.90;;;2.70;;
16115;SDS011;8162;47.104;15.432;2022-09-09T05:35:59;3.43;;;2.27;;
16115;SDS011;8162;47.104;15.432;2022-09-09T05:38:45;4.13;;;3.23;;
16115;SDS011;8162;47.104;15.432;2022-09-09T05:41:11;5.63;;;2.83;;
16115;SDS011;8162;47.104;15.432;2022-09-09T05:43:40;8.07;;;2.93;;
16115;SDS011;8162;47.104;15.432;2022-09-09T05:46:08;3.33;;;2.80;;
16115;SDS011;8162;47.104;15.432;2022-09-09T05:48:36;3.20;;;2.90;;
16115;SDS011;8162;47.104;15.432;2022-09-09T05:51:03;3.00;;;2.70;;
16115;SDS011;8162;47.104;15.432;2022-09-09T05:53:31;3.33;;;3.03;;
16115;SDS011;8162;47.104;15.432;2022-09-09T05:56:03;2.93;;;2.73;;
16115;SDS011;8162;47.104;15.432;2022-09-09T05:58:36;2.93;;;2.73;;
16115;SDS011;8162;47.104;15.432;2022-09-09T06:01:07;3.03;;;2.80;;
16115;SDS011;8162;47.104;15.432;2022-09-09T06:03:35;4.30;;;2.73;;
16115;SDS011;8162;47.104;15.432;2022-09-09T06:06:03;3.47;;;3.17;;
16115;SDS011;8162;47.104;15.432;2022-09-09T06:08:30;3.13;;;2.83;;
16115;SDS011;8162;47.104;15.432;2022-09-09T06:11:03;3.00;;;2.80;;
16115;SDS011;8162;47.104;15.432;2022-09-09T06:13:33;3.30;;;3.00;;
16115;SDS011;8162;47.104;15.432;2022-09-09T06:16:00;3.90;;;2.50;;
16115;SDS011;8162;47.104;15.432;2022-09-09T06:18:26;3.40;;;2.70;;
16115;SDS011;8162;47.104;15.432;2022-09-09T06:21:11;4.43;;;2.90;;
16115;SDS011;8162;47.104;15.432;2022-09-09T06:23:43;4.83;;;2.37;;
16115;SDS011;8162;47.104;15.432;2022-09-09T06:28:50;5.17;;;2.50;;
16115;SDS011;8162;47.104;15.432;2022-09-09T06:31:18;4.40;;;2.77;;
16115;SDS011;8162;47.104;15.432;2022-09-09T06:33:52;4.33;;;2.50;;
16115;SDS011;8162;47.104;15.432;2022-09-09T06:36:24;3.53;;;3.23;;
16115;SDS011;8162;47.104;15.432;2022-09-09T06:38:54;3.20;;;2.67;;
16115;SDS011;8162;47.104;15.432;2022-09-09T06:41:21;2.97;;;2.60;;
16115;SDS011;8162;47.104;15.432;2022-09-09T06:43:48;2.53;;;2.33;;
16115;SDS011;8162;47.104;15.432;2022-09-09T06:46:15;5.17;;;3.17;;
16115;SDS011;8162;47.104;15.432;2022-09-09T06:48:43;3.27;;;2.50;;
16115;SDS011;8162;47.104;15.432;2022-09-09T06:51:11;7.80;;;3.00;;
16115;SDS011;8162;47.104;15.432;2022-09-09T06:53:38;3.70;;;3.40;;
16115;SDS011;8162;47.104;15.432;2022-09-09T06:56:22;4.90;;;3.23;;
16115;SDS011;8162;47.104;15.432;2022-09-09T06:58:53;5.63;;;2.73;;
16115;SDS011;8162;47.104;15.432;2022-09-09T07:01:21;2.63;;;2.43;;
16115;SDS011;8162;47.104;15.432;2022-09-09T07:03:52;3.60;;;2.80;;
16115;SDS011;8162;47.104;15.432;2022-09-09T07:06:26;3.77;;;2.70;;
16115;SDS011;8162;47.104;15.432;2022-09-09T07:08:54;3.17;;;2.33;;
16115;SDS011;8162;47.104;15.432;2022-09-09T07:11:22;5.93;;;2.47;;
16115;SDS011;8162;47.104;15.432;2022-09-09T07:13:48;4.23;;;3.00;;
16115;SDS011;8162;47.104;15.432;2022-09-09T07:16:16;4.57;;;2.50;;
16115;SDS011;8162;47.104;15.432;2022-09-09T07:18:43;2.50;;;2.30;;
16115;SDS011;8162;47.104;15.432;2022-09-09T07:21:10;4.80;;;2.63;;
16115;SDS011;8162;47.104;15.432;2022-09-09T07:23:39;2.37;;;2.17;;
16115;SDS011;8162;47.104;15.432;2022-09-09T07:26:09;3.80;;;2.43;;
16115;SDS011;8162;47.104;15.432;2022-09-09T07:28:37;2.97;;;2.40;;
16115;SDS011;8162;47.104;15.432;2022-09-09T07:31:04;2.60;;;2.40;;
16115;SDS011;8162;47.104;15.432;2022-09-09T07:33:32;2.63;;;2.20;;
16115;SDS011;8162;47.104;15.432;2022-09-09T07:36:16;3.73;;;3.03;;
16115;SDS011;8162;47.104;15.432;2022-09-09T07:38:50;2.87;;;2.43;;
16115;SDS011;8162;47.104;15.432;2022-09-09T07:41:21;2.60;;;2.40;;
16115;SDS011;8162;47.104;15.432;2022-09-09T07:43:47;2.37;;;2.17;;
16115;SDS011;8162;47.104;15.432;2022-09-09T07:46:14;4.40;;;2.70;;
16115;SDS011;8162;47.104;15.432;2022-09-09T07:48:45;5.30;;;2.60;;
16115;SDS011;8162;47.104;15.432;2022-09-09T07:51:16;3.53;;;3.13;;
16115;SDS011;8162;47.104;15.432;2022-09-09T07:53:48;2.80;;;2.30;;
16115;SDS011;8162;47.104;15.432;2022-09-09T07:56:17;3.03;;;2.30;;
16115;SDS011;8162;47.104;15.432;2022-09-09T07:58:47;3.57;;;2.60;;
16115;SDS011;8162;47.104;15.432;2022-09-09T08:01:17;3.83;;;2.80;;
16115;SDS011;8162;47.104;15.432;2022-09-09T08:03:45;4.60;;;2.50;;
16115;SDS011;8162;47.104;15.432;2022-09-09T08:06:17;2.60;;;2.40;;
16115;SDS011;8162;47.104;15.432;2022-09-09T08:08:43;4.13;;;2.60;;
16115;SDS011;8162;47.104;15.432;2022-09-09T08:11:10;6.00;;;2.80;;
16115;SDS011;8162;47.104;15.432;2022-09-09T08:13:37;2.80;;;2.50;;
16115;SDS011;8162;47.104;15.432;2022-09-09T08:16:14;3.53;;;2.00;;
16115;SDS011;8162;47.104;15.432;2022-09-09T08:18:41;3.27;;;2.63;;
16115;SDS011;8162;47.104;15.432;2022-09-09T08:21:08;2.40;;;2.20;;
16115;SDS011;8162;47.104;15.432;2022-09-09T08:23:37;3.83;;;3.13;;
16115;SDS011;8162;47.104;15.432;2022-09-09T08:26:12;4.43;;;2.73;;
16115;SDS011;8162;47.104;15.432;2022-09-09T08:28:40;3.13;;;2.83;;
16115;SDS011;8162;47.104;15.432;2022-09-09T08:33:37;2.70;;;2.47;;
16115;SDS011;8162;47.104;15.432;2022-09-09T08:36:03;6.33;;;2.73;;
16115;SDS011;8162;47.104;15.432;2022-09-09T08:38:31;2.80;;;2.60;;
16115;SDS011;8162;47.104;15.432;2022-09-09T08:40:58;2.23;;;2.03;;
16115;SDS011;8162;47.104;15.432;2022-09-09T08:43:35;2.83;;;2.43;;
16115;SDS011;8162;47.104;15.432;2022-09-09T08:49:05;3.20;;;2.90;;
16115;SDS011;8162;47.104;15.432;2022-09-09T08:51:27;7.90;;;2.70;;
16115;SDS011;8162;47.104;15.432;2022-09-09T08:53:56;2.70;;;2.50;;
16115;SDS011;8162;47.104;15.432;2022-09-09T08:56:25;2.87;;;2.60;;
16115;SDS011;8162;47.104;15.432;2022-09-09T08:58:53;3.83;;;3.43;;
16115;SDS011;8162;47.104;15.432;2022-09-09T09:04:06;3.07;;;2.77;;
16115;SDS011;8162;47.104;15.432;2022-09-09T09:07:04;3.17;;;2.87;;
16115;SDS011;8162;47.104;15.432;2022-09-09T09:12:43;5.70;;;2.63;;
16115;SDS011;8162;47.104;15.432;2022-09-09T09:15:53;4.63;;;2.93;;
16115;SDS011;8162;47.104;15.432;2022-09-09T09:18:02;6.47;;;2.50;;
16115;SDS011;8162;47.104;15.432;2022-09-09T09:20:35;3.73;;;3.13;;
16115;SDS011;8162;47.104;15.432;2022-09-09T09:23:16;3.30;;;2.53;;
16115;SDS011;8162;47.104;15.432;2022-09-09T09:25:47;3.33;;;2.50;;
16115;SDS011;8162;47.104;15.432;2022-09-09T09:28:19;6.10;;;2.67;;
16115;SDS011;8162;47.104;15.432;2022-09-09T09:31:22;2.40;;;2.20;;
16115;SDS011;8162;47.104;15.432;2022-09-09T09:33:47;3.83;;;2.57;;
16115;SDS011;8162;47.104;15.432;2022-09-09T09:36:24;3.27;;;2.40;;
16115;SDS011;8162;47.104;15.432;2022-09-09T09:38:59;2.60;;;2.40;;
16115;SDS011;8162;47.104;15.432;2022-09-09T09:41:33;4.07;;;2.67;;
16115;SDS011;8162;47.104;15.432;2022-09-09T09:47:14;2.87;;;2.10;;
16115;SDS011;8162;47.104;15.432;2022-09-09T09:49:54;2.53;;;2.20;;
16115;SDS011;8162;47.104;15.432;2022-09-09T09:52:25;3.60;;;2.53;;
16115;SDS011;8162;47.104;15.432;2022-09-09T09:54:53;3.83;;;2.20;;
16115;SDS011;8162;47.104;15.432;2022-09-09T09:57:27;2.63;;;2.40;;
16115;SDS011;8162;47.104;15.432;2022-09-09T10:02:37;2.63;;;2.37;;
16115;SDS011;8162;47.104;15.432;2022-09-09T10:07:37;2.33;;;2.13;;
16115;SDS011;8162;47.104;15.432;2022-09-09T10:10:04;2.20;;;2.00;;
16115;SDS011;8162;47.104;15.432;2022-09-09T10:23:18;4.53;;;1.87;;
16115;SDS011;8162;47.104;15.432;2022-09-09T10:28:28;1.90;;;1.50;;
16115;SDS011;8162;47.104;15.432;2022-09-09T10:31:12;2.23;;;1.77;;
16115;SDS011;8162;47.104;15.432;2022-09-09T10:34:06;2.37;;;1.90;;
16115;SDS011;8162;47.104;15.432;2022-09-09T10:36:56;4.53;;;1.73;;
16115;SDS011;8162;47.104;15.432;2022-09-09T10:39:36;2.67;;;1.97;;
16115;SDS011;8162;47.104;15.432;2022-09-09T10:42:14;1.70;;;1.60;;
16115;SDS011;8162;47.104;15.432;2022-09-09T10:47:46;1.50;;;1.40;;
16115;SDS011;8162;47.104;15.432;2022-09-09T10:50:25;3.03;;;1.47;;
16115;SDS011;8162;47.104;15.432;2022-09-09T10:55:57;2.07;;;1.70;;
16115;SDS011;8162;47.104;15.432;2022-09-09T10:58:38;2.00;;;1.67;;
16115;SDS011;8162;47.104;15.432;2022-09-09T11:01:19;1.70;;;1.60;;
16115;SDS011;8162;47.104;15.432;2022-09-09T11:04:09;3.23;;;1.90;;
16115;SDS011;8162;47.104;15.432;2022-09-09T11:06:41;2.00;;;1.70;;
16115;SDS011;8162;47.104;15.432;2022-09-09T11:09:16;2.83;;;1.70;;
16115;SDS011;8162;47.104;15.432;2022-09-09T11:11:53;2.70;;;1.60;;
16115;SDS011;8162;47.104;15.432;2022-09-09T11:17:09;5.73;;;1.93;;
16115;SDS011;8162;47.104;15.432;2022-09-09T11:19:39;2.80;;;1.60;;
16115;SDS011;8162;47.104;15.432;2022-09-09T11:22:08;3.00;;;1.80;;
16115;SDS011;8162;47.104;15.432;2022-09-09T11:35:58;2.87;;;1.70;;
16115;SDS011;8162;47.104;15.432;2022-09-09T11:38:26;4.50;;;1.70;;
16115;SDS011;8162;47.104;15.432;2022-09-09T11:41:12;4.13;;;2.00;;
16115;SDS011;8162;47.104;15.432;2022-09-09T11:43:41;2.13;;;1.73;;
16115;SDS011;8162;47.104;15.432;2022-09-09T11:46:10;1.80;;;1.70;;
16115;SDS011;8162;47.104;15.432;2022-09-09T11:48:38;5.40;;;1.97;;
16115;SDS011;8162;47.104;15.432;2022-09-09T11:51:12;2.23;;;1.80;;
16115;SDS011;8162;47.104;15.432;2022-09-09T11:53:54;1.83;;;1.67;;
16115;SDS011;8162;47.104;15.432;2022-09-09T11:59:20;1.70;;;1.60;;
16115;SDS011;8162;47.104;15.432;2022-09-09T12:01:57;2.43;;;1.60;;
16115;SDS011;8162;47.104;15.432;2022-09-09T12:07:00;2.83;;;1.27;;
16115;SDS011;8162;47.104;15.432;2022-09-09T12:12:24;1.50;;;1.40;;
16115;SDS011;8162;47.104;15.432;2022-09-09T12:17:54;2.60;;;1.60;;
16115;SDS011;8162;47.104;15.432;2022-09-09T12:20:38;1.30;;;1.20;;
16115;SDS011;8162;47.104;15.432;2022-09-09T12:26:04;3.13;;;1.47;;
16115;SDS011;8162;47.104;15.432;2022-09-09T12:34:42;1.07;;;0.90;;
16115;SDS011;8162;47.104;15.432;2022-09-09T12:40:21;2.30;;;1.07;;
16115;SDS011;8162;47.104;15.432;2022-09-09T12:42:49;1.20;;;1.10;;
16115;SDS011;8162;47.104;15.432;2022-09-09T12:45:26;1.30;;;1.00;;
16115;SDS011;8162;47.104;15.432;2022-09-09T12:48:03;4.50;;;1.13;;
16115;SDS011;8162;47.104;15.432;2022-09-09T12:50:51;2.73;;;1.40;;
16115;SDS011;8162;47.104;15.432;2022-09-09T12:53:24;3.40;;;1.33;;
16115;SDS011;8162;47.104;15.432;2022-09-09T12:55:57;4.43;;;1.60;;
16115;SDS011;8162;47.104;15.432;2022-09-09T12:58:28;4.47;;;2.00;;
16115;SDS011;8162;47.104;15.432;2022-09-09T13:00:58;20.10;;;4.00;;
16115;SDS011;8162;47.104;15.432;2022-09-09T13:03:25;4.50;;;1.20;;
16115;SDS011;8162;47.104;15.432;2022-09-09T13:05:51;2.03;;;1.30;;
16115;SDS011;8162;47.104;15.432;2022-09-09T13:08:18;2.80;;;1.50;;
16115;SDS011;8162;47.104;15.432;2022-09-09T13:11:01;2.60;;;1.10;;
16115;SDS011;8162;47.104;15.432;2022-09-09T13:13:36;3.07;;;1.23;;
16115;SDS011;8162;47.104;15.432;2022-09-09T13:16:03;2.50;;;1.30;;
16115;SDS011;8162;47.104;15.432;2022-09-09T13:18:36;1.13;;;0.90;;
16115;SDS011;8162;47.104;15.432;2022-09-09T13:21:05;1.47;;;1.23;;
16115;SDS011;8162;47.104;15.432;2022-09-09T13:23:35;1.13;;;1.03;;
16115;SDS011;8162;47.104;15.432;2022-09-09T13:26:03;2.47;;;1.30;;
16115;SDS011;8162;47.104;15.432;2022-09-09T13:28:32;1.47;;;1.37;;
16115;SDS011;8162;47.104;15.432;2022-09-09T13:31:18;1.27;;;1.17;;
16115;SDS011;8162;47.104;15.432;2022-09-09T13:33:54;1.73;;;1.23;;
16115;SDS011;8162;47.104;15.432;2022-09-09T13:36:28;2.90;;;1.70;;
16115;SDS011;8162;47.104;15.432;2022-09-09T13:38:56;2.20;;;1.53;;
16115;SDS011;8162;47.104;15.432;2022-09-09T13:41:25;1.67;;;1.57;;
16115;SDS011;8162;47.104;15.432;2022-09-09T13:44:01;2.37;;;1.50;;
16115;SDS011;8162;47.104;15.432;2022-09-09T13:48:57;2.90;;;1.67;;
16115;SDS011;8162;47.104;15.432;2022-09-09T13:51:30;2.67;;;1.50;;
16115;SDS011;8162;47.104;15.432;2022-09-09T13:54:06;2.07;;;1.67;;
16115;SDS011;8162;47.104;15.432;2022-09-09T13:56:34;1.90;;;1.80;;
16115;SDS011;8162;47.104;15.432;2022-09-09T13:59:01;3.13;;;1.70;;
16115;SDS011;8162;47.104;15.432;2022-09-09T14:01:28;3.03;;;1.73;;
16115;SDS011;8162;47.104;15.432;2022-09-09T14:03:55;2.03;;;1.83;;
16115;SDS011;8162;47.104;15.432;2022-09-09T14:06:21;4.47;;;1.90;;
16115;SDS011;8162;47.104;15.432;2022-09-09T14:08:47;3.17;;;1.67;;
16115;SDS011;8162;47.104;15.432;2022-09-09T14:11:14;2.10;;;1.90;;
16115;SDS011;8162;47.104;15.432;2022-09-09T14:13:40;3.13;;;2.10;;
16115;SDS011;8162;47.104;15.432;2022-09-09T14:16:05;2.40;;;2.00;;
16115;SDS011;8162;47.104;15.432;2022-09-09T14:18:31;6.20;;;1.93;;
16115;SDS011;8162;47.104;15.432;2022-09-09T14:20:57;3.63;;;2.30;;
16115;SDS011;8162;47.104;15.432;2022-09-09T14:23:23;3.70;;;2.67;;
16115;SDS011;8162;47.104;15.432;2022-09-09T14:25:49;5.17;;;2.47;;
16115;SDS011;8162;47.104;15.432;2022-09-09T14:28:16;2.47;;;1.90;;
16115;SDS011;8162;47.104;15.432;2022-09-09T14:30:42;4.77;;;2.17;;
16115;SDS011;8162;47.104;15.432;2022-09-09T14:33:10;2.93;;;2.30;;
16115;SDS011;8162;47.104;15.432;2022-09-09T14:35:37;4.70;;;2.83;;
16115;SDS011;8162;47.104;15.432;2022-09-09T14:38:06;2.63;;;2.37;;
16115;SDS011;8162;47.104;15.432;2022-09-09T14:40:33;2.80;;;2.47;;
16115;SDS011;8162;47.104;15.432;2022-09-09T14:43:03;3.43;;;2.43;;
16115;SDS011;8162;47.104;15.432;2022-09-09T14:45:30;2.60;;;2.40;;
16115;SDS011;8162;47.104;15.432;2022-09-09T14:47:56;3.00;;;2.53;;
16115;SDS011;8162;47.104;15.432;2022-09-09T14:50:22;2.47;;;2.27;;
16115;SDS011;8162;47.104;15.432;2022-09-09T14:52:48;4.80;;;2.40;;
16115;SDS011;8162;47.104;15.432;2022-09-09T14:55:15;3.23;;;2.27;;
16115;SDS011;8162;47.104;15.432;2022-09-09T14:57:41;3.27;;;2.37;;
16115;SDS011;8162;47.104;15.432;2022-09-09T15:00:07;4.40;;;2.67;;
16115;SDS011;8162;47.104;15.432;2022-09-09T15:02:34;6.73;;;2.43;;
16115;SDS011;8162;47.104;15.432;2022-09-09T15:05:00;4.40;;;2.20;;
16115;SDS011;8162;47.104;15.432;2022-09-09T15:07:26;2.70;;;2.17;;
16115;SDS011;8162;47.104;15.432;2022-09-09T15:09:53;2.63;;;2.43;;
16115;SDS011;8162;47.104;15.432;2022-09-09T15:12:19;2.90;;;2.30;;
16115;SDS011;8162;47.104;15.432;2022-09-09T15:14:45;4.37;;;3.43;;
16115;SDS011;8162;47.104;15.432;2022-09-09T15:17:12;4.00;;;2.90;;
16115;SDS011;8162;47.104;15.432;2022-09-09T15:19:38;3.17;;;2.70;;
16115;SDS011;8162;47.104;15.432;2022-09-09T15:22:04;5.27;;;2.90;;
16115;SDS011;8162;47.104;15.432;2022-09-09T15:24:33;4.30;;;3.47;;
16115;SDS011;8162;47.104;15.432;2022-09-09T15:26:59;4.10;;;2.90;;
16115;SDS011;8162;47.104;15.432;2022-09-09T15:29:26;4.80;;;3.10;;
16115;SDS011;8162;47.104;15.432;2022-09-09T15:31:53;3.17;;;2.87;;
16115;SDS011;8162;47.104;15.432;2022-09-09T15:34:19;5.23;;;3.17;;
16115;SDS011;8162;47.104;15.432;2022-09-09T15:36:46;4.37;;;2.80;;
16115;SDS011;8162;47.104;15.432;2022-09-09T15:39:12;3.43;;;3.13;;
16115;SDS011;8162;47.104;15.432;2022-09-09T15:41:41;5.53;;;2.90;;
16115;SDS011;8162;47.104;15.432;2022-09-09T15:44:08;3.80;;;2.50;;
16115;SDS011;8162;47.104;15.432;2022-09-09T15:46:42;4.47;;;2.50;;
16115;SDS011;8162;47.104;15.432;2022-09-09T15:51:39;4.30;;;2.30;;
16115;SDS011;8162;47.104;15.432;2022-09-09T15:54:07;4.73;;;2.70;;
16115;SDS011;8162;47.104;15.432;2022-09-09T15:56:34;2.60;;;2.40;;
16115;SDS011;8162;47.104;15.432;2022-09-09T15:59:00;2.80;;;2.10;;
16115;SDS011;8162;47.104;15.432;2022-09-09T16:01:27;3.90;;;2.57;;
16115;SDS011;8162;47.104;15.432;2022-09-09T16:03:54;3.90;;;2.60;;
16115;SDS011;8162;47.104;15.432;2022-09-09T16:06:21;2.73;;;2.50;;
16115;SDS011;8162;47.104;15.432;2022-09-09T16:08:49;7.17;;;3.03;;
16115;SDS011;8162;47.104;15.432;2022-09-09T16:11:17;4.43;;;2.47;;
16115;SDS011;8162;47.104;15.432;2022-09-09T16:13:51;5.83;;;3.40;;
16115;SDS011;8162;47.104;15.432;2022-09-09T16:16:19;5.07;;;2.77;;
16115;SDS011;8162;47.104;15.432;2022-09-09T16:18:48;5.70;;;2.80;;
16115;SDS011;8162;47.104;15.432;2022-09-09T16:21:30;3.33;;;2.67;;
16115;SDS011;8162;47.104;15.432;2022-09-09T16:23:58;5.93;;;3.20;;
16115;SDS011;8162;47.104;15.432;2022-09-09T16:26:25;5.03;;;3.30;;
16115;SDS011;8162;47.104;15.432;2022-09-09T16:28:52;3.90;;;2.57;;
16115;SDS011;8162;47.104;15.432;2022-09-09T16:31:19;3.37;;;1.97;;
16115;SDS011;8162;47.104;15.432;2022-09-09T16:33:47;5.20;;;2.40;;
16115;SDS011;8162;47.104;15.432;2022-09-09T16:36:17;4.93;;;2.33;;
16115;SDS011;8162;47.104;15.432;2022-09-09T16:38:45;2.93;;;2.53;;
16115;SDS011;8162;47.104;15.432;2022-09-09T16:41:11;6.13;;;3.30;;
16115;SDS011;8162;47.104;15.432;2022-09-09T16:43:38;4.87;;;2.77;;
16115;SDS011;8162;47.104;15.432;2022-09-09T16:46:15;4.13;;;2.80;;
16115;SDS011;8162;47.104;15.432;2022-09-09T16:48:43;3.60;;;2.97;;
16115;SDS011;8162;47.104;15.432;2022-09-09T16:51:20;3.37;;;3.07;;
16115;SDS011;8162;47.104;15.432;2022-09-09T16:53:55;4.30;;;2.83;;
16115;SDS011;8162;47.104;15.432;2022-09-09T16:56:23;3.30;;;2.70;;
16115;SDS011;8162;47.104;15.432;2022-09-09T16:58:54;2.93;;;2.70;;
16115;SDS011;8162;47.104;15.432;2022-09-09T17:01:25;4.13;;;2.60;;
16115;SDS011;8162;47.104;15.432;2022-09-09T17:03:55;4.90;;;2.60;;
16115;SDS011;8162;47.104;15.432;2022-09-09T17:06:22;4.33;;;2.33;;
16115;SDS011;8162;47.104;15.432;2022-09-09T17:08:53;2.90;;;2.50;;
16115;SDS011;8162;47.104;15.432;2022-09-09T17:11:29;2.53;;;2.17;;